createdAt,value
2019-05-16T00:00:12.322Z,32.23
2019-05-16T00:02:41.966Z,31.63
2019-05-16T00:05:11.945Z,31.00
2019-05-16T00:07:41.586Z,29.55
2019-05-16T00:10:12.808Z,28.90
2019-05-16T00:12:42.322Z,28.75
2019-05-16T00:15:12.848Z,28.05
2019-05-16T00:17:42.500Z,26.87
2019-05-16T00:20:12.386Z,25.15
2019-05-16T00:22:42.035Z,25.30
2019-05-16T00:25:11.597Z,27.70
2019-05-16T00:27:41.146Z,26.02
2019-05-16T00:30:11.670Z,23.47
2019-05-16T00:32:41.193Z,27.15
2019-05-16T00:35:10.655Z,23.98
2019-05-16T00:37:40.067Z,24.55
2019-05-16T00:40:09.642Z,24.05
2019-05-16T00:42:39.382Z,24.17
2019-05-16T00:45:09.613Z,24.13
2019-05-16T00:47:40.188Z,24.03
2019-05-16T00:50:10.927Z,23.80
2019-05-16T00:52:40.338Z,24.02
2019-05-16T00:55:09.922Z,24.05
2019-05-16T00:57:41.207Z,24.47
2019-05-16T01:00:11.795Z,23.77
2019-05-16T01:02:41.568Z,23.92
2019-05-16T01:05:14.369Z,23.07
2019-05-16T01:07:42.604Z,22.17
2019-05-16T01:10:12.159Z,23.30
2019-05-16T01:12:41.671Z,22.73
2019-05-16T01:15:11.597Z,22.35
2019-05-16T01:17:41.159Z,23.32
2019-05-16T01:20:10.748Z,22.80
2019-05-16T01:22:40.359Z,24.73
2019-05-16T01:25:11.266Z,24.32
2019-05-16T01:27:40.755Z,23.70
2019-05-16T01:30:11.014Z,22.73
2019-05-16T01:32:40.860Z,25.55
2019-05-16T01:35:11.941Z,21.97
2019-05-16T01:37:41.518Z,31.20
2019-05-16T01:40:11.229Z,22.27
2019-05-16T01:42:40.662Z,21.63
2019-05-16T01:45:10.481Z,21.77
2019-05-16T01:47:39.991Z,21.48
2019-05-16T01:50:10.008Z,20.00
2019-05-16T01:52:39.507Z,18.30
2019-05-16T01:55:09.051Z,20.40
2019-05-16T01:57:39.310Z,17.80
2019-05-16T02:00:10.445Z,19.17
2019-05-16T02:02:39.948Z,19.67
2019-05-16T02:05:10.010Z,19.57
2019-05-16T02:07:39.611Z,17.77
2019-05-16T02:10:10.209Z,17.87
2019-05-16T02:12:39.715Z,16.40
2019-05-16T02:15:09.799Z,16.40
2019-05-16T02:17:40.212Z,16.62
2019-05-16T02:20:10.960Z,16.47
2019-05-16T02:22:40.348Z,17.67
2019-05-16T02:25:10.326Z,17.50
2019-05-16T02:27:41.083Z,18.10
2019-05-16T02:30:13.216Z,17.40
2019-05-16T02:32:42.683Z,18.10
2019-05-16T02:35:12.342Z,18.20
2019-05-16T02:37:42.686Z,17.35
2019-05-16T02:40:14.379Z,18.73
2019-05-16T02:42:44.964Z,17.63
2019-05-16T02:45:14.996Z,17.53
2019-05-16T02:47:44.518Z,18.77
2019-05-16T02:50:14.922Z,17.97
2019-05-16T02:52:44.420Z,18.57
2019-05-16T02:55:14.049Z,18.20
2019-05-16T02:57:43.576Z,17.90
2019-05-16T03:00:14.781Z,17.47
2019-05-16T03:02:44.588Z,18.47
2019-05-16T03:05:14.211Z,19.57
2019-05-16T03:07:47.234Z,24.47
2019-05-16T03:10:16.427Z,26.27
2019-05-16T03:12:47.799Z,20.33
2019-05-16T03:15:17.319Z,22.53
2019-05-16T03:17:50.738Z,18.50
2019-05-16T03:20:21.502Z,18.97
2019-05-16T03:22:51.992Z,18.73
2019-05-16T03:25:22.626Z,19.53
2019-05-16T03:27:52.123Z,19.13
2019-05-16T03:30:24.136Z,18.83
2019-05-16T03:32:55.030Z,18.57
2019-05-16T03:35:25.350Z,19.45
2019-05-16T03:38:00.221Z,19.57
2019-05-16T03:40:31.094Z,19.57
2019-05-16T03:43:01.364Z,19.07
2019-05-16T03:45:31.957Z,20.17
2019-05-16T03:48:02.735Z,20.57
2019-05-16T03:50:32.104Z,20.47
2019-05-16T03:53:01.965Z,20.23
2019-05-16T03:55:32.557Z,20.23
2019-05-16T03:58:02.347Z,20.93
2019-05-16T04:00:34.834Z,20.82
2019-05-16T04:03:05.603Z,22.35
2019-05-16T04:05:35.040Z,22.20
2019-05-16T04:08:15.255Z,23.27
2019-05-16T04:10:35.991Z,21.43
2019-05-16T04:13:05.561Z,22.53
2019-05-16T04:15:35.045Z,22.15
2019-05-16T04:18:04.511Z,22.55
2019-05-16T04:20:33.961Z,21.00
2019-05-16T04:23:03.470Z,20.33
2019-05-16T04:25:32.954Z,19.13
2019-05-16T04:28:02.603Z,19.63
2019-05-16T04:30:32.207Z,17.40
2019-05-16T04:33:02.021Z,15.60
2019-05-16T04:35:31.745Z,15.30
2019-05-16T04:38:02.032Z,14.93
2019-05-16T04:40:31.849Z,14.63
2019-05-16T04:43:01.383Z,14.27
2019-05-16T04:45:31.776Z,15.05
2019-05-16T04:48:01.557Z,13.67
2019-05-16T04:50:31.338Z,14.40
2019-05-16T04:53:01.485Z,13.73
2019-05-16T04:55:31.692Z,15.03
2019-05-16T04:58:01.652Z,15.18
2019-05-16T05:00:32.042Z,14.80
2019-05-16T05:03:01.669Z,15.33
2019-05-16T05:05:33.405Z,14.98
2019-05-16T05:08:02.293Z,14.98
2019-05-16T05:10:31.931Z,14.37
2019-05-16T05:13:01.756Z,15.13
2019-05-16T05:15:31.576Z,13.53
2019-05-16T05:18:01.219Z,13.10
2019-05-16T05:20:31.237Z,12.93
2019-05-16T05:23:00.636Z,13.10
2019-05-16T05:25:30.838Z,13.77
2019-05-16T05:28:01.735Z,13.27
2019-05-16T05:30:31.203Z,12.65
2019-05-16T05:33:00.839Z,12.40
2019-05-16T05:35:31.112Z,13.08
2019-05-16T05:38:01.003Z,13.53
2019-05-16T05:40:30.510Z,14.70
2019-05-16T05:43:00.030Z,15.58
2019-05-16T05:45:30.647Z,15.53
2019-05-16T05:48:00.285Z,16.17
2019-05-16T05:50:30.734Z,16.17
2019-05-16T05:53:01.531Z,16.07
2019-05-16T05:55:31.548Z,16.40
2019-05-16T05:58:01.219Z,16.32
2019-05-16T06:00:30.791Z,16.43
2019-05-16T06:03:00.279Z,17.37
2019-05-16T06:05:30.611Z,17.65
2019-05-16T06:08:00.377Z,18.20
2019-05-16T06:10:30.389Z,19.02
2019-05-16T06:13:00.659Z,18.77
2019-05-16T06:15:30.680Z,20.32
2019-05-16T06:18:00.378Z,25.10
2019-05-16T06:20:30.811Z,27.60
2019-05-16T06:23:00.268Z,27.93
2019-05-16T06:25:31.536Z,29.02
2019-05-16T06:28:00.804Z,28.80
2019-05-16T06:30:30.648Z,29.40
2019-05-16T06:33:00.185Z,29.90
2019-05-16T06:35:29.991Z,30.13
2019-05-16T06:38:00.594Z,31.70
2019-05-16T06:40:30.301Z,33.02
2019-05-16T06:43:00.344Z,33.83
2019-05-16T06:45:32.069Z,33.27
2019-05-16T06:48:01.478Z,33.33
2019-05-16T06:50:30.870Z,33.33
2019-05-16T06:53:00.966Z,33.20
2019-05-16T06:55:30.662Z,34.00
2019-05-16T06:58:00.831Z,31.52
2019-05-16T07:00:30.460Z,29.67
2019-05-16T07:03:00.371Z,29.67
2019-05-16T07:05:30.072Z,29.20
2019-05-16T07:07:59.850Z,27.40
2019-05-16T07:10:30.668Z,26.42
2019-05-16T07:13:00.795Z,27.13
2019-05-16T07:15:30.435Z,26.80
2019-05-16T07:17:59.824Z,26.50
2019-05-16T07:20:30.157Z,26.97
2019-05-16T07:23:00.710Z,27.65
2019-05-16T07:25:30.451Z,30.30
2019-05-16T07:28:00.733Z,30.32
2019-05-16T07:30:30.755Z,28.60
2019-05-16T07:33:00.417Z,28.95
2019-05-16T07:35:30.786Z,29.40
2019-05-16T07:38:00.625Z,27.73
2019-05-16T07:40:30.806Z,26.77
2019-05-16T07:43:00.520Z,27.47
2019-05-16T07:45:30.865Z,25.40
2019-05-16T07:48:00.504Z,27.70
2019-05-16T07:50:30.186Z,27.70
2019-05-16T07:53:00.033Z,28.10
2019-05-16T07:55:30.842Z,28.50
2019-05-16T07:58:00.442Z,28.10
2019-05-16T08:00:48.048Z,29.98
2019-05-16T08:03:01.262Z,28.02
2019-05-16T08:05:33.570Z,29.67
2019-05-16T08:08:01.974Z,29.90
2019-05-16T08:10:39.434Z,29.13
2019-05-16T08:13:03.468Z,29.97
2019-05-16T08:15:33.283Z,27.25
2019-05-16T08:18:03.386Z,27.17
2019-05-16T08:20:32.932Z,29.13
2019-05-16T08:23:02.394Z,28.95
2019-05-16T08:25:31.978Z,27.83
2019-05-16T08:28:01.403Z,26.80
2019-05-16T08:30:31.689Z,27.70
2019-05-16T08:33:02.369Z,28.95
2019-05-16T08:35:32.291Z,27.60
2019-05-16T08:38:02.168Z,28.43
2019-05-16T08:40:32.165Z,27.25
2019-05-16T08:43:02.899Z,26.97
2019-05-16T08:45:32.628Z,28.80
2019-05-16T08:48:02.330Z,29.03
2019-05-16T08:50:34.990Z,28.83
2019-05-16T08:53:02.996Z,26.23
2019-05-16T08:55:32.518Z,28.90
2019-05-16T08:58:02.884Z,26.68
2019-05-16T09:00:34.812Z,28.43
2019-05-16T09:03:04.275Z,28.98
2019-05-16T09:05:33.758Z,29.33
2019-05-16T09:08:03.226Z,29.20
2019-05-16T09:11:09.269Z,29.13
2019-05-16T09:13:06.843Z,29.70
2019-05-16T09:15:38.881Z,28.37
2019-05-16T09:18:07.503Z,31.03
2019-05-16T09:20:40.189Z,29.65
2019-05-16T09:23:08.528Z,29.50
2019-05-16T09:25:37.980Z,29.95
2019-05-16T09:28:08.331Z,29.00
2019-05-16T09:30:37.818Z,29.70
2019-05-16T09:33:07.427Z,29.65
2019-05-16T09:35:37.163Z,29.63
2019-05-16T09:38:07.328Z,30.47
2019-05-16T09:40:38.904Z,28.55
2019-05-16T09:43:08.206Z,28.65
2019-05-16T09:45:38.122Z,28.87
2019-05-16T09:48:08.268Z,27.93
2019-05-16T09:50:39.193Z,27.25
2019-05-16T09:53:08.650Z,28.67
2019-05-16T09:55:38.057Z,28.30
2019-05-16T09:58:07.622Z,26.42
2019-05-16T10:00:38.627Z,28.40
2019-05-16T10:03:08.340Z,27.80
2019-05-16T10:05:38.023Z,29.80
2019-05-16T10:08:07.907Z,30.70
2019-05-16T10:10:37.378Z,29.10
2019-05-16T10:13:06.946Z,28.38
2019-05-16T10:15:37.733Z,29.77
2019-05-16T10:18:07.674Z,29.00
2019-05-16T10:20:37.200Z,30.15
2019-05-16T10:23:14.320Z,29.32
2019-05-16T10:25:37.945Z,29.02
2019-05-16T10:28:08.687Z,30.23
2019-05-16T10:30:38.222Z,30.45
2019-05-16T10:33:07.902Z,29.50
2019-05-16T10:35:37.564Z,29.95
2019-05-16T10:38:07.269Z,30.00
2019-05-16T10:40:37.063Z,29.52
2019-05-16T10:43:07.458Z,31.40
2019-05-16T10:45:37.126Z,29.20
2019-05-16T10:48:06.701Z,28.35
2019-05-16T10:50:36.972Z,30.77
2019-05-16T10:53:23.770Z,29.40
2019-05-16T10:55:38.084Z,28.85
2019-05-16T10:58:08.108Z,28.25
2019-05-16T11:01:05.165Z,28.17
2019-05-16T11:03:09.011Z,27.27
2019-05-16T11:05:39.637Z,25.95
2019-05-16T11:08:09.493Z,28.57
2019-05-16T11:10:39.099Z,28.70
2019-05-16T11:13:08.684Z,29.25
2019-05-16T11:15:38.286Z,30.57
2019-05-16T11:18:07.785Z,26.95
2019-05-16T11:20:37.630Z,27.75
2019-05-16T11:23:08.117Z,28.10
2019-05-16T11:25:37.765Z,27.07
2019-05-16T11:28:07.524Z,29.07
2019-05-16T11:30:37.745Z,28.73
2019-05-16T11:33:07.785Z,27.75
2019-05-16T11:35:38.182Z,27.85
2019-05-16T11:38:07.892Z,29.02
2019-05-16T11:40:37.448Z,27.00
2019-05-16T11:43:15.904Z,27.82
2019-05-16T11:45:38.263Z,29.48
2019-05-16T11:48:07.734Z,29.63
2019-05-16T11:50:37.534Z,28.00
2019-05-16T11:53:07.402Z,28.95
2019-05-16T11:55:50.370Z,29.72
2019-05-16T11:58:08.165Z,30.23
2019-05-16T12:00:37.945Z,31.12
2019-05-16T12:03:07.517Z,30.12
2019-05-16T12:05:37.416Z,29.82
2019-05-16T12:08:07.952Z,27.37
2019-05-16T12:10:37.495Z,27.37
2019-05-16T12:13:07.585Z,28.65
2019-05-16T12:15:38.071Z,28.12
2019-05-16T12:18:08.577Z,28.73
2019-05-16T12:20:38.401Z,28.62
2019-05-16T12:23:08.193Z,28.57
2019-05-16T12:25:37.798Z,28.32
2019-05-16T12:28:08.220Z,28.47
2019-05-16T12:30:40.378Z,27.98
2019-05-16T12:33:09.243Z,26.85
2019-05-16T12:35:38.899Z,29.70
2019-05-16T12:38:08.588Z,27.90
2019-05-16T12:40:39.053Z,28.73
2019-05-16T12:43:08.482Z,27.35
2019-05-16T12:45:38.739Z,26.60
2019-05-16T12:48:08.646Z,27.98
2019-05-16T12:50:39.075Z,27.30
2019-05-16T12:53:08.672Z,27.15
2019-05-16T12:55:38.698Z,29.98
2019-05-16T12:58:24.564Z,27.15
2019-05-16T13:00:43.996Z,27.22
2019-05-16T13:03:11.015Z,26.70
2019-05-16T13:05:40.622Z,29.32
2019-05-16T13:08:11.152Z,29.25
2019-05-16T13:10:40.739Z,25.90
2019-05-16T13:13:10.149Z,29.05
2019-05-16T13:15:42.443Z,27.48
2019-05-16T13:18:11.062Z,28.77
2019-05-16T13:20:41.394Z,28.12
2019-05-16T13:23:14.322Z,30.57
2019-05-16T13:25:42.124Z,31.25
2019-05-16T13:28:11.678Z,32.23
2019-05-16T13:30:41.188Z,28.38
2019-05-16T13:33:10.737Z,29.27
2019-05-16T13:35:40.131Z,27.65
2019-05-16T13:38:09.706Z,31.55
2019-05-16T13:40:39.201Z,30.88
2019-05-16T13:43:10.306Z,28.25
2019-05-16T13:45:40.104Z,26.37
2019-05-16T13:48:09.559Z,20.50
2019-05-16T13:50:40.032Z,20.08
2019-05-16T13:53:09.763Z,21.42
2019-05-16T13:55:39.211Z,19.95
2019-05-16T13:58:08.780Z,18.80
2019-05-16T14:00:38.291Z,18.27
2019-05-16T14:03:07.831Z,17.35
2019-05-16T14:05:37.981Z,16.55
2019-05-16T14:08:07.799Z,16.97
2019-05-16T14:10:37.809Z,15.68
2019-05-16T14:13:07.816Z,15.93
2019-05-16T14:15:37.435Z,18.75
2019-05-16T14:18:07.871Z,15.23
2019-05-16T14:20:37.954Z,16.30
2019-05-16T14:23:08.700Z,16.93
2019-05-16T14:25:38.567Z,17.62
2019-05-16T14:28:08.085Z,17.40
2019-05-16T14:30:37.609Z,18.77
2019-05-16T14:33:13.860Z,17.80
2019-05-16T14:35:38.262Z,13.58
2019-05-16T14:38:07.653Z,8.98
2019-05-16T14:40:37.500Z,8.68
2019-05-16T14:43:08.200Z,7.60
2019-05-16T14:45:38.419Z,7.72
2019-05-16T14:48:08.068Z,6.37
2019-05-16T14:50:37.985Z,5.90
2019-05-16T14:53:07.675Z,5.45
2019-05-16T14:55:38.534Z,4.95
2019-05-16T14:58:08.292Z,5.50
2019-05-16T15:00:38.502Z,5.08
2019-05-16T15:03:08.726Z,5.15
2019-05-16T15:05:42.380Z,5.70
2019-05-16T15:08:09.668Z,4.80
2019-05-16T15:10:39.271Z,4.55
2019-05-16T15:13:08.841Z,5.08
2019-05-16T15:15:38.329Z,5.12
2019-05-16T15:18:08.416Z,5.12
2019-05-16T15:20:38.493Z,6.70
2019-05-16T15:23:08.098Z,4.55
2019-05-16T15:25:37.750Z,4.07
2019-05-16T15:28:07.850Z,4.20
2019-05-16T15:30:39.386Z,4.55
2019-05-16T15:33:09.107Z,4.60
2019-05-16T15:35:38.592Z,4.20
2019-05-16T15:38:08.250Z,4.73
2019-05-16T15:40:37.970Z,4.97
2019-05-16T15:43:08.297Z,5.10
2019-05-16T15:45:43.419Z,5.30
2019-05-16T15:48:12.701Z,4.87
2019-05-16T15:50:42.522Z,4.62
2019-05-16T15:53:12.140Z,5.25
2019-05-16T15:55:42.178Z,5.53
2019-05-16T15:58:11.738Z,5.10
2019-05-16T16:00:47.482Z,5.05
2019-05-16T16:03:17.559Z,4.80
2019-05-16T16:05:47.573Z,5.15
2019-05-16T16:08:18.204Z,5.20
2019-05-16T16:10:48.423Z,5.25
2019-05-16T16:13:19.836Z,5.50
2019-05-16T16:15:53.931Z,6.27
2019-05-16T16:18:21.935Z,6.62
2019-05-16T16:20:51.739Z,5.85
2019-05-16T16:23:21.197Z,6.30
2019-05-16T16:25:51.581Z,5.97
2019-05-16T16:28:21.418Z,6.33
2019-05-16T16:30:50.891Z,6.53
2019-05-16T16:33:25.710Z,6.67
2019-05-16T16:35:51.683Z,6.65
2019-05-16T16:38:21.104Z,6.65
2019-05-16T16:40:50.561Z,7.57
2019-05-16T16:43:20.004Z,7.78
2019-05-16T16:45:49.393Z,7.20
2019-05-16T16:48:18.777Z,7.47
2019-05-16T16:50:48.272Z,7.78
2019-05-16T16:53:17.780Z,8.33
2019-05-16T16:55:48.486Z,8.80
2019-05-16T16:58:18.051Z,9.40
2019-05-16T17:00:47.924Z,10.55
2019-05-16T17:03:17.906Z,8.53
2019-05-16T17:05:47.415Z,8.75
2019-05-16T17:08:17.016Z,8.25
2019-05-16T17:10:47.714Z,9.23
2019-05-16T17:13:17.380Z,9.57
2019-05-16T17:15:47.430Z,8.53
2019-05-16T17:18:17.595Z,9.60
2019-05-16T17:20:47.825Z,9.80
2019-05-16T17:23:18.945Z,40.98
2019-05-16T17:25:48.437Z,10.32
2019-05-16T17:28:18.091Z,10.85
2019-05-16T17:30:47.771Z,25.67
2019-05-16T17:33:18.229Z,28.10
2019-05-16T17:35:49.362Z,14.45
2019-05-16T17:38:18.893Z,16.10
2019-05-16T17:40:48.394Z,25.32
2019-05-16T17:43:17.858Z,26.85
2019-05-16T17:45:47.504Z,12.67
2019-05-16T17:48:18.068Z,12.23
2019-05-16T17:50:47.762Z,11.70
2019-05-16T17:53:18.681Z,12.40
2019-05-16T17:55:48.218Z,13.33
2019-05-16T17:58:17.966Z,16.43
2019-05-16T18:00:47.538Z,17.17
2019-05-16T18:03:18.071Z,15.78
2019-05-16T18:05:47.784Z,13.80
2019-05-16T18:08:17.541Z,12.13
2019-05-16T18:10:47.344Z,11.78
2019-05-16T18:13:17.002Z,18.65
2019-05-16T18:15:47.340Z,58.40
2019-05-16T18:18:18.069Z,20.00
2019-05-16T18:20:55.810Z,13.22
2019-05-16T18:23:18.618Z,11.88
2019-05-16T18:25:48.107Z,12.68
2019-05-16T18:28:17.790Z,12.45
2019-05-16T18:30:47.480Z,18.02
2019-05-16T18:33:16.999Z,13.28
2019-05-16T18:35:47.088Z,17.67
2019-05-16T18:38:17.683Z,15.63
2019-05-16T18:40:47.508Z,10.00
2019-05-16T18:43:17.126Z,10.68
2019-05-16T18:45:47.230Z,11.45
2019-05-16T18:48:16.913Z,15.38
2019-05-16T18:50:47.736Z,13.28
2019-05-16T18:53:18.367Z,9.10
2019-05-16T18:55:47.821Z,10.05
2019-05-16T18:58:18.096Z,11.05
2019-05-16T19:00:47.861Z,8.90
2019-05-16T19:03:17.422Z,8.70
2019-05-16T19:05:47.975Z,8.28
2019-05-16T19:08:17.470Z,10.23
2019-05-16T19:10:47.424Z,8.80
2019-05-16T19:13:17.030Z,8.75
2019-05-16T19:15:49.209Z,8.83
2019-05-16T19:18:19.015Z,9.10
2019-05-16T19:20:49.032Z,9.08
2019-05-16T19:23:18.881Z,8.40
2019-05-16T19:25:48.386Z,8.75
2019-05-16T19:28:17.916Z,8.80
2019-05-16T19:30:47.660Z,8.48
2019-05-16T19:33:17.616Z,8.33
2019-05-16T19:35:49.033Z,9.60
2019-05-16T19:38:18.771Z,9.28
2019-05-16T19:40:48.331Z,8.50
2019-05-16T19:43:17.762Z,10.30
2019-05-16T19:45:47.250Z,9.75
2019-05-16T19:48:17.773Z,9.43
2019-05-16T19:50:47.298Z,9.75
2019-05-16T19:53:17.755Z,9.80
2019-05-16T19:55:47.314Z,8.93
2019-05-16T19:58:16.783Z,9.85
2019-05-16T20:00:46.599Z,10.00
2019-05-16T20:03:16.750Z,9.60
2019-05-16T20:05:47.599Z,10.10
2019-05-16T20:08:17.723Z,9.20
2019-05-16T20:10:47.673Z,8.83
2019-05-16T20:13:17.348Z,8.63
2019-05-16T20:15:47.238Z,8.13
2019-05-16T20:18:18.553Z,7.85
2019-05-16T20:20:48.116Z,7.67
2019-05-16T20:23:18.726Z,7.83
2019-05-16T20:25:48.501Z,7.78
2019-05-16T20:28:18.587Z,7.03
2019-05-16T20:30:48.329Z,7.00
2019-05-16T20:33:18.274Z,6.97
2019-05-16T20:35:47.890Z,6.17
2019-05-16T20:38:17.513Z,6.58
2019-05-16T20:40:47.223Z,5.85
2019-05-16T20:43:16.972Z,5.67
2019-05-16T20:45:47.593Z,5.37
2019-05-16T20:48:18.546Z,5.80
2019-05-16T20:50:49.212Z,5.93
2019-05-16T20:53:19.064Z,5.62
2019-05-16T20:55:49.629Z,5.65
2019-05-16T20:58:20.542Z,7.30
2019-05-16T21:00:50.044Z,6.75
2019-05-16T21:03:19.605Z,5.50
2019-05-16T21:05:49.251Z,6.40
2019-05-16T21:08:18.918Z,5.50
2019-05-16T21:10:48.380Z,7.40
2019-05-16T21:13:17.905Z,5.55
2019-05-16T21:15:47.727Z,5.72
2019-05-16T21:18:17.318Z,5.90
2019-05-16T21:20:48.463Z,5.75
2019-05-16T21:23:19.514Z,6.08
2019-05-16T21:25:49.255Z,10.00
2019-05-16T21:28:19.788Z,6.42
2019-05-16T21:30:49.511Z,6.50
2019-05-16T21:33:19.787Z,5.95
2019-05-16T21:35:49.822Z,6.30
2019-05-16T21:38:19.312Z,7.05
2019-05-16T21:40:49.497Z,6.55
2019-05-16T21:43:18.976Z,7.28
2019-05-16T21:45:48.406Z,7.17
2019-05-16T21:48:19.468Z,7.40
2019-05-16T21:50:49.225Z,7.97
2019-05-16T21:53:18.910Z,7.83
2019-05-16T21:55:48.299Z,8.63
2019-05-16T21:58:17.968Z,11.73
2019-05-16T22:00:49.373Z,9.03
2019-05-16T22:03:19.065Z,9.58
2019-05-16T22:05:48.615Z,9.47
2019-05-16T22:08:18.261Z,9.53
2019-05-16T22:10:47.988Z,10.95
2019-05-16T22:13:17.614Z,12.03
2019-05-16T22:15:47.236Z,11.73
2019-05-16T22:18:16.808Z,14.10
2019-05-16T22:20:48.773Z,24.52
2019-05-16T22:23:17.656Z,24.43
2019-05-16T22:25:49.318Z,20.77
2019-05-16T22:28:18.495Z,32.13
2019-05-16T22:30:48.797Z,17.12
2019-05-16T22:33:20.183Z,22.67
2019-05-16T22:35:50.210Z,17.00
2019-05-16T22:38:19.754Z,16.87
2019-05-16T22:41:02.043Z,13.85
2019-05-16T22:43:31.545Z,14.30
2019-05-16T22:46:01.013Z,16.80
2019-05-16T22:48:30.600Z,20.77
2019-05-16T22:51:00.220Z,13.28
2019-05-16T22:53:29.666Z,12.67
2019-05-16T22:55:59.278Z,12.43
2019-05-16T22:58:28.686Z,12.82
2019-05-16T23:00:58.430Z,10.07
2019-05-16T23:03:27.842Z,11.40
2019-05-16T23:05:58.295Z,7.73
2019-05-16T23:08:29.216Z,7.27
2019-05-16T23:10:58.609Z,7.93
2019-05-16T23:13:28.379Z,8.03
2019-05-16T23:15:57.940Z,9.30
2019-05-16T23:18:27.401Z,11.20
2019-05-16T23:20:57.046Z,11.85
2019-05-16T23:23:26.756Z,15.40
2019-05-16T23:25:56.936Z,15.43
2019-05-16T23:28:27.319Z,22.07
2019-05-16T23:30:57.725Z,14.98
2019-05-16T23:33:28.659Z,18.77
2019-05-16T23:35:58.093Z,15.20
2019-05-16T23:38:27.781Z,16.30
2019-05-16T23:40:58.308Z,16.45
2019-05-16T23:43:27.921Z,16.32
2019-05-16T23:45:57.805Z,16.27
2019-05-16T23:48:27.636Z,16.82
2019-05-16T23:50:57.545Z,17.20
2019-05-16T23:53:27.375Z,17.48
2019-05-16T23:55:57.216Z,18.95
2019-05-16T23:58:27.076Z,24.53
